Time;durP1;ratioP1;P1;durP2;ratioP2;P2;SDS_P1;SDS_P2;PMS_P1;PMS_P2;Temp;Humidity;BMP_temperature;BMP_pressure;BME280_temperature;BME280_humidity;BME280_pressure;Samples;Min_cycle;Max_cycle;Signal;HPM_P1;HPM_P2
2023/04/26 00:01:34;;;;;;;12.40;6.45;;;;;;;3.12;85.05;101889.50;5033185;28;20029;-53
2023/04/26 00:04:00;;;;;;;10.70;5.93;;;;;;;3.10;85.38;101895.72;5039967;28;20061;-53
2023/04/26 00:06:26;;;;;;;11.65;5.95;;;;;;;3.05;85.20;101892.34;5034919;28;20028;-52
2023/04/26 00:08:51;;;;;;;12.57;5.78;;;;;;;3.00;85.54;101892.50;5048002;28;20029;-56
2023/04/26 00:11:16;;;;;;;11.05;5.57;;;;;;;2.97;85.65;101890.81;5021856;28;20033;-53
2023/04/26 00:13:41;;;;;;;13.63;6.18;;;;;;;2.92;85.50;101884.81;5024863;28;20029;-53
2023/04/26 00:16:07;;;;;;;14.73;6.75;;;;;;;2.93;85.88;101891.81;5020985;28;20112;-54
2023/04/26 00:18:32;;;;;;;13.85;6.18;;;;;;;2.92;85.75;101891.84;5037011;28;20034;-55
2023/04/26 00:20:58;;;;;;;9.20;5.38;;;;;;;2.88;85.95;101893.69;5038108;28;20033;-52
2023/04/26 00:23:23;;;;;;;9.55;5.13;;;;;;;2.89;86.58;101889.31;5035858;28;20083;-56
2023/04/26 00:25:48;;;;;;;11.98;5.70;;;;;;;2.88;86.14;101895.44;5050838;28;20032;-56
2023/04/26 00:28:14;;;;;;;10.68;5.43;;;;;;;2.85;85.85;101901.66;5034521;28;20192;-54
2023/04/26 00:30:46;;;;;;;12.70;6.30;;;;;;;2.84;85.82;101897.28;5040333;28;20479;-54
2023/04/26 00:33:11;;;;;;;7.85;5.35;;;;;;;2.82;85.81;101901.72;5035310;28;20380;-54
2023/04/26 00:35:37;;;;;;;10.02;5.20;;;;;;;2.78;85.98;101893.09;5016043;28;20053;-52
2023/04/26 00:38:02;;;;;;;11.45;5.47;;;;;;;2.76;86.17;101897.53;5019804;28;20028;-55
2023/04/26 00:40:28;;;;;;;11.90;5.70;;;;;;;2.73;85.56;101901.97;5024181;28;20021;-52
2023/04/26 00:42:58;;;;;;;7.50;5.35;;;;;;;2.70;85.68;101891.56;5035418;28;20432;-55
2023/04/26 00:45:23;;;;;;;8.95;5.28;;;;;;;2.67;86.89;101897.75;5028930;28;20026;-55
2023/04/26 00:47:49;;;;;;;9.35;5.78;;;;;;;2.64;86.75;101900.44;5028905;28;20363;-54
2023/04/26 00:50:15;;;;;;;12.00;6.10;;;;;;;2.64;86.37;101903.06;5034679;28;20475;-52
2023/04/26 00:52:40;;;;;;;8.73;5.65;;;;;;;2.61;86.84;101895.28;5024309;28;20125;-54
2023/04/26 00:55:07;;;;;;;9.65;5.32;;;;;;;2.62;86.89;101901.41;5041023;28;20032;-54
2023/04/26 00:57:32;;;;;;;9.48;5.38;;;;;;;2.59;86.43;101895.31;5038936;28;20391;-53
2023/04/26 00:59:57;;;;;;;8.85;5.30;;;;;;;2.58;86.25;101895.34;5027500;28;20029;-53
2023/04/26 01:02:23;;;;;;;8.10;5.30;;;;;;;2.55;86.25;101896.31;5038900;28;20029;-53
2023/04/26 01:04:48;;;;;;;11.80;5.70;;;;;;;2.52;85.71;101892.91;5038538;28;20087;-53
2023/04/26 01:07:14;;;;;;;6.63;5.10;;;;;;;2.49;86.43;101888.59;5045084;28;20025;-55
2023/04/26 01:09:39;;;;;;;12.90;5.82;;;;;;;2.46;86.50;101888.66;5023345;28;20013;-56
2023/04/26 01:12:05;;;;;;;11.32;5.90;;;;;;;2.43;85.84;101893.13;5044671;28;20025;-52
2023/04/26 01:14:31;;;;;;;10.45;5.82;;;;;;;2.37;86.68;101892.41;5045222;28;21075;-55
2023/04/26 01:16:56;;;;;;;14.57;5.80;;;;;;;2.37;86.98;101899.41;5040036;28;20495;-53
2023/04/26 01:19:22;;;;;;;9.63;5.70;;;;;;;2.37;86.67;101892.41;5039626;28;20055;-52
2023/04/26 01:21:47;;;;;;;10.55;5.43;;;;;;;2.32;86.09;101894.28;5036272;28;20057;-54
2023/04/26 01:24:13;;;;;;;11.32;5.63;;;;;;;2.27;86.42;101885.66;5034369;28;20017;-53
2023/04/26 01:26:45;;;;;;;11.45;5.18;;;;;;;2.25;86.64;101894.47;5038157;28;20183;-51
2023/04/26 01:29:18;;;;;;;11.48;5.63;;;;;;;2.20;86.90;101894.59;5035347;28;20487;-54
2023/04/26 01:31:44;;;;;;;13.82;5.40;;;;;;;2.16;86.96;101896.41;5016908;28;20083;-56
2023/04/26 01:34:09;;;;;;;9.60;5.68;;;;;;;2.15;86.47;101901.69;5035363;28;20025;-54
2023/04/26 01:36:35;;;;;;;14.18;6.03;;;;;;;2.10;86.65;101904.44;5035983;28;20032;-53
2023/04/26 01:39:00;;;;;;;15.57;5.30;;;;;;;2.08;86.90;101907.97;5023005;28;20021;-54
2023/04/26 01:41:25;;;;;;;13.00;6.28;;;;;;;2.02;86.64;101906.38;5034834;28;20029;-55
2023/04/26 01:43:50;;;;;;;14.80;5.93;;;;;;;1.97;87.18;101909.09;5032587;28;20160;-55
2023/04/26 01:46:16;;;;;;;12.90;5.90;;;;;;;1.91;87.41;101909.25;5033689;28;20044;-52
2023/04/26 01:48:41;;;;;;;9.05;5.55;;;;;;;1.90;88.14;101902.28;5035212;28;20455;-52
2023/04/26 01:51:06;;;;;;;10.25;6.13;;;;;;;1.87;87.77;101897.13;5024920;28;20395;-54
2023/04/26 01:53:32;;;;;;;12.88;6.20;;;;;;;1.84;87.42;101894.56;5031468;28;20027;-54
2023/04/26 01:56:04;;;;;;;11.65;6.05;;;;;;;1.79;87.66;101901.69;5034081;28;20455;-53
2023/04/26 01:58:30;;;;;;;9.18;6.03;;;;;;;1.76;88.10;101897.34;5028549;28;20433;-52
2023/04/26 02:01:05;;;;;;;11.18;5.90;;;;;;;1.75;87.70;101895.66;5039117;28;20021;-52
2023/04/26 02:03:30;;;;;;;10.20;6.53;;;;;;;1.74;88.35;101896.53;5033917;28;20084;-52
2023/04/26 02:05:56;;;;;;;11.60;6.32;;;;;;;1.75;88.49;101892.16;5027037;28;20355;-52
2023/04/26 02:08:21;;;;;;;10.27;5.70;;;;;;;1.74;88.33;101903.53;5031182;28;20036;-53
2023/04/26 02:10:46;;;;;;;10.40;5.60;;;;;;;1.74;88.87;101898.31;5040893;28;20032;-52
2023/04/26 02:13:11;;;;;;;13.00;6.07;;;;;;;1.73;87.91;101896.56;5024807;28;20017;-53
2023/04/26 02:15:37;;;;;;;9.40;5.80;;;;;;;1.71;87.75;101903.59;5034970;28;20037;-54
2023/04/26 02:18:02;;;;;;;10.73;6.03;;;;;;;1.70;88.34;101896.63;5035983;28;20043;-54
2023/04/26 02:20:27;;;;;;;11.38;6.20;;;;;;;1.65;88.41;101899.38;5033116;28;20554;-53
2023/04/26 02:22:53;;;;;;;9.68;5.82;;;;;;;1.67;88.75;101903.66;5044004;28;20025;-51
2023/04/26 02:25:18;;;;;;;10.13;6.32;;;;;;;1.66;88.83;101901.94;5049059;28;20021;-51
2023/04/26 02:27:43;;;;;;;13.77;6.05;;;;;;;1.63;88.31;101899.41;5035591;28;20040;-52
2023/04/26 02:30:09;;;;;;;11.23;6.38;;;;;;;1.60;88.56;101894.25;5038328;28;20078;-53
2023/04/26 02:32:35;;;;;;;9.82;5.93;;;;;;;1.57;88.49;101896.06;5042414;28;20036;-52
2023/04/26 02:35:00;;;;;;;10.07;5.90;;;;;;;1.55;88.48;101890.88;5044713;28;20494;-52
2023/04/26 02:37:26;;;;;;;15.30;6.78;;;;;;;1.52;88.90;101893.53;5037649;28;20025;-54
2023/04/26 02:39:51;;;;;;;10.50;6.13;;;;;;;1.52;88.72;101887.47;5041681;28;20033;-55
2023/04/26 02:42:16;;;;;;;11.82;7.05;;;;;;;1.51;88.28;101898.81;5039751;28;20022;-54
2023/04/26 02:44:42;;;;;;;12.80;6.60;;;;;;;1.48;88.24;101891.88;5023769;28;20510;-54
2023/04/26 02:47:08;;;;;;;11.55;6.32;;;;;;;1.44;89.13;101892.84;5031913;28;20025;-51
2023/04/26 02:49:33;;;;;;;10.68;6.50;;;;;;;1.44;88.65;101898.94;5026029;28;20033;-53
2023/04/26 02:51:58;;;;;;;9.65;6.18;;;;;;;1.43;88.69;101893.72;5034464;28;20386;-53
2023/04/26 02:54:23;;;;;;;14.85;7.50;;;;;;;1.39;89.27;101892.09;5034865;28;20088;-53
2023/04/26 02:56:49;;;;;;;9.38;6.63;;;;;;;1.37;89.22;101886.88;5029014;28;20045;-52
2023/04/26 02:59:14;;;;;;;13.23;7.35;;;;;;;1.37;89.24;101893.88;5040808;28;20033;-52
2023/04/26 03:01:40;;;;;;;13.77;6.80;;;;;;;1.37;89.08;101883.41;5039940;28;20021;-52
2023/04/26 03:04:05;;;;;;;11.88;6.88;;;;;;;1.34;89.32;101881.72;5030648;28;20042;-52
2023/04/26 03:06:32;;;;;;;11.00;7.03;;;;;;;1.35;89.57;101872.09;5033879;28;20040;-53
2023/04/26 03:08:57;;;;;;;10.05;6.75;;;;;;;1.31;89.02;101876.53;5036904;28;20030;-55
2023/04/26 03:11:22;;;;;;;13.45;6.45;;;;;;;1.29;89.98;101876.56;5037332;28;20018;-51
2023/04/26 03:13:47;;;;;;;9.57;6.90;;;;;;;1.28;89.75;101881.81;5031090;28;20164;-52
2023/04/26 03:16:13;;;;;;;14.48;6.78;;;;;;;1.25;89.60;101882.78;5038769;28;20544;-56
2023/04/26 03:18:38;;;;;;;11.75;6.68;;;;;;;1.26;89.74;101881.84;5027536;28;20273;-53
2023/04/26 03:21:03;;;;;;;15.27;6.78;;;;;;;1.22;89.96;101879.38;5031198;28;20034;-53
2023/04/26 03:23:28;;;;;;;12.82;6.95;;;;;;;1.19;89.94;101876.81;5033553;28;20072;-55
2023/04/26 03:25:54;;;;;;;12.80;6.40;;;;;;;1.18;90.07;101873.31;5038366;28;20052;-53
2023/04/26 03:28:20;;;;;;;10.80;6.28;;;;;;;1.17;89.65;101874.22;5049436;28;20031;-52
2023/04/26 03:30:45;;;;;;;10.35;6.38;;;;;;;1.13;89.70;101875.16;5046911;28;20091;-54
2023/04/26 03:33:12;;;;;;;11.18;6.57;;;;;;;1.10;90.46;101873.47;5050311;28;20439;-56
2023/04/26 03:35:37;;;;;;;10.80;6.68;;;;;;;1.09;90.30;101873.50;5025647;28;20549;-53
2023/04/26 03:38:03;;;;;;;10.68;6.28;;;;;;;1.07;90.28;101870.06;5033714;28;20676;-56
2023/04/26 03:40:28;;;;;;;11.95;6.32;;;;;;;1.03;90.05;101873.63;5038459;28;20048;-56
2023/04/26 03:42:53;;;;;;;11.70;7.03;;;;;;;1.01;90.08;101872.81;5028816;28;20033;-56
2023/04/26 03:45:19;;;;;;;11.57;6.85;;;;;;;0.99;90.02;101871.97;5026993;28;20497;-55
2023/04/26 03:47:45;;;;;;;13.50;7.65;;;;;;;0.98;90.38;101870.25;5032244;28;20030;-54
2023/04/26 03:50:10;;;;;;;11.48;7.50;;;;;;;0.94;89.88;101871.22;5043127;28;20450;-55
2023/04/26 03:52:36;;;;;;;12.98;7.05;;;;;;;0.95;90.84;101867.69;5042484;28;20580;-52
2023/04/26 03:55:01;;;;;;;15.60;7.75;;;;;;;0.92;90.87;101877.31;5020931;28;20376;-53
2023/04/26 03:57:26;;;;;;;13.10;6.82;;;;;;;0.92;90.43;101879.94;5032924;28;20348;-54
2023/04/26 03:59:52;;;;;;;14.65;7.00;;;;;;;0.87;90.93;101876.56;5025731;28;20092;-54
2023/04/26 04:02:17;;;;;;;13.57;7.63;;;;;;;0.87;90.50;101878.31;5041722;28;20155;-53
2023/04/26 04:04:42;;;;;;;14.30;7.75;;;;;;;0.82;90.90;101873.16;5027414;28;20103;-53
2023/04/26 04:07:07;;;;;;;13.10;7.10;;;;;;;0.83;90.97;101874.03;5046302;28;20139;-53
2023/04/26 04:09:33;;;;;;;14.13;7.18;;;;;;;0.82;91.15;101873.16;5022289;28;20041;-55
2023/04/26 04:11:58;;;;;;;10.82;6.70;;;;;;;0.80;90.97;101867.13;5031949;28;20029;-52
2023/04/26 04:14:23;;;;;;;13.98;7.10;;;;;;;0.79;91.88;101865.38;5030759;28;20513;-56
2023/04/26 04:16:49;;;;;;;14.35;7.57;;;;;;;0.80;91.65;101872.34;5031266;28;20021;-52
2023/04/26 04:19:14;;;;;;;11.43;7.70;;;;;;;0.79;91.43;101881.06;5040576;28;20490;-53
2023/04/26 04:21:42;;;;;;;10.20;6.88;;;;;;;0.80;91.73;101868.84;5047403;28;20487;-55
2023/04/26 04:24:07;;;;;;;12.77;7.22;;;;;;;0.80;91.31;101869.72;5037049;28;20037;-56
2023/04/26 04:26:33;;;;;;;13.32;6.95;;;;;;;0.79;91.38;101865.38;5043496;28;20094;-55
2023/04/26 04:29:07;;;;;;;15.30;7.40;;;;;;;0.77;91.57;101875.00;5045693;28;20037;-54
2023/04/26 04:31:32;;;;;;;15.90;7.43;;;;;;;0.74;91.68;101882.91;5048011;28;20021;-55
2023/04/26 04:33:57;;;;;;;11.48;7.55;;;;;;;0.75;91.39;101884.66;5029469;28;20195;-52
2023/04/26 04:36:23;;;;;;;10.82;7.45;;;;;;;0.76;91.88;101877.66;5037259;28;20045;-53
2023/04/26 04:38:48;;;;;;;10.63;7.35;;;;;;;0.76;91.87;101877.66;5022367;28;20033;-55
2023/04/26 04:41:13;;;;;;;12.20;7.35;;;;;;;0.78;92.29;101888.94;5033508;28;20033;-55
2023/04/26 04:43:39;;;;;;;13.63;7.72;;;;;;;0.78;92.51;101886.31;5019018;28;20029;-54
2023/04/26 04:46:04;;;;;;;14.15;7.97;;;;;;;0.78;93.24;101888.94;5032192;28;20072;-55
2023/04/26 04:48:29;;;;;;;10.95;7.20;;;;;;;0.79;92.69;101893.28;5031535;28;20083;-52
2023/04/26 04:50:55;;;;;;;12.73;7.43;;;;;;;0.80;92.33;101895.00;5031248;28;20046;-55
2023/04/26 04:53:20;;;;;;;13.20;7.97;;;;;;;0.84;93.17;101897.53;5029790;28;20056;-54
2023/04/26 04:55:45;;;;;;;11.48;7.55;;;;;;;0.85;93.63;101899.28;5048077;28;20139;-55
2023/04/26 04:58:12;;;;;;;19.05;8.95;;;;;;;0.86;93.64;101898.34;5045281;28;20495;-53
2023/04/26 05:00:38;;;;;;;12.73;8.02;;;;;;;0.89;93.75;101895.69;5026025;28;20065;-52
2023/04/26 05:03:03;;;;;;;15.13;8.77;;;;;;;0.93;93.94;101893.88;5033954;28;20103;-54
2023/04/26 05:05:29;;;;;;;15.30;9.10;;;;;;;0.97;94.23;101903.41;5041357;28;20017;-55
2023/04/26 05:07:55;;;;;;;13.65;8.48;;;;;;;0.97;94.63;101890.31;5069406;22;20115;-83
2023/04/26 05:10:20;;;;;;;17.70;9.93;;;;;;;1.08;95.10;101901.44;5050948;28;20021;-83
2023/04/26 05:12:48;;;;;;;15.30;9.93;;;;;;;1.15;95.09;101891.72;5073238;28;20116;-83
2023/04/26 05:15:14;;;;;;;15.03;9.50;;;;;;;1.27;95.40;101895.81;5059830;28;20033;-83
2023/04/26 05:17:40;;;;;;;20.52;10.13;;;;;;;1.38;95.96;101899.09;5051636;28;20033;-83
2023/04/26 05:20:07;;;;;;;22.40;11.02;;;;;;;1.48;95.77;101902.34;5059357;28;20033;-83
2023/04/26 05:22:35;;;;;;;13.52;9.55;;;;;;;1.60;96.39;101896.84;5059300;28;20029;-83
2023/04/26 05:25:01;;;;;;;22.17;11.10;;;;;;;1.73;96.41;101902.66;5058623;28;20025;-83
2023/04/26 05:27:27;;;;;;;16.85;10.38;;;;;;;1.82;95.59;101901.63;5060066;28;20032;-83
2023/04/26 05:29:53;;;;;;;17.20;10.07;;;;;;;1.89;95.43;101903.19;5063921;28;20021;-82
2023/04/26 05:32:18;;;;;;;19.30;10.68;;;;;;;1.94;94.94;101900.47;5065332;28;20539;-82
2023/04/26 05:34:43;;;;;;;20.48;10.55;;;;;;;1.97;95.13;101911.72;5075896;28;20015;-82
2023/04/26 05:37:08;;;;;;;17.75;10.32;;;;;;;2.00;94.40;101906.41;5077710;28;20024;-83
2023/04/26 05:39:34;;;;;;;17.60;10.73;;;;;;;2.03;95.09;101900.22;5074162;28;20056;-82
2023/04/26 05:42:00;;;;;;;16.13;10.20;;;;;;;2.07;94.76;101904.50;5066272;28;20033;-83
2023/04/26 05:44:25;;;;;;;23.45;11.18;;;;;;;2.10;95.50;101909.69;5065637;28;20378;-84
2023/04/26 05:46:51;;;;;;;18.88;11.23;;;;;;;2.13;95.49;101912.22;5062266;28;20121;-83
2023/04/26 05:49:16;;;;;;;19.42;11.30;;;;;;;2.20;94.82;101907.69;5061989;28;20356;-83
2023/04/26 05:51:42;;;;;;;18.48;11.45;;;;;;;2.26;95.18;101902.28;5061375;28;20379;-83
2023/04/26 05:54:07;;;;;;;21.25;11.13;;;;;;;2.33;94.98;101903.00;5061078;28;20111;-82
2023/04/26 05:56:32;;;;;;;18.45;10.93;;;;;;;2.41;95.70;101901.03;5061352;28;20409;-83
2023/04/26 05:58:57;;;;;;;17.15;10.50;;;;;;;2.49;95.56;101896.47;5059130;28;20120;-83
2023/04/26 06:01:23;;;;;;;16.75;11.25;;;;;;;2.57;94.96;101901.53;5061625;28;20453;-83
2023/04/26 06:03:48;;;;;;;19.95;11.13;;;;;;;2.59;94.90;101903.19;5052600;28;20064;-83
2023/04/26 06:06:14;;;;;;;17.63;11.23;;;;;;;2.67;94.88;101905.63;5058144;28;20494;-83
2023/04/26 06:08:41;;;;;;;18.20;11.55;;;;;;;2.75;94.55;101908.91;5061094;28;20060;-83
2023/04/26 06:11:07;;;;;;;18.45;11.38;;;;;;;2.85;94.81;101911.25;5059883;28;20059;-82
2023/04/26 06:13:33;;;;;;;20.77;11.93;;;;;;;2.97;95.77;101903.06;5061716;28;20473;-83
2023/04/26 06:15:59;;;;;;;22.52;11.88;;;;;;;3.02;94.74;101916.94;5056203;28;20060;-84
2023/04/26 06:18:25;;;;;;;18.20;11.85;;;;;;;3.11;94.82;101914.06;5057991;28;20061;-84
2023/04/26 06:20:50;;;;;;;20.10;12.32;;;;;;;3.24;95.28;101913.69;5076973;28;20078;-84
2023/04/26 06:23:16;;;;;;;21.52;11.90;;;;;;;3.32;95.52;101916.97;5064916;28;20021;-83
2023/04/26 06:25:43;;;;;;;20.00;11.68;;;;;;;3.40;95.65;101919.34;5061006;28;20406;-84
2023/04/26 06:28:09;;;;;;;20.83;11.65;;;;;;;3.49;95.40;101925.19;5061128;28;20032;-83
2023/04/26 06:30:34;;;;;;;19.13;12.02;;;;;;;3.57;94.70;101932.00;5060800;28;20037;-84
2023/04/26 06:33:00;;;;;;;19.55;11.63;;;;;;;3.64;95.12;101923.88;5066694;28;20025;-84
2023/04/26 06:35:25;;;;;;;27.92;12.18;;;;;;;3.71;95.31;101924.53;5060076;28;20043;-83
2023/04/26 06:37:51;;;;;;;20.05;12.02;;;;;;;3.82;95.37;101930.34;5065250;28;20045;-83
2023/04/26 06:40:16;;;;;;;18.10;11.18;;;;;;;3.93;95.11;101937.03;5061986;28;20021;-83
2023/04/26 06:42:42;;;;;;;20.02;11.52;;;;;;;4.03;95.51;101941.97;5067889;28;20037;-83
2023/04/26 06:45:08;;;;;;;16.83;11.70;;;;;;;4.16;94.25;101941.56;5062492;28;20053;-84
2023/04/26 06:47:33;;;;;;;19.70;11.27;;;;;;;4.25;94.44;101939.50;5061183;28;20036;-84
2023/04/26 06:50:00;;;;;;;16.55;10.90;;;;;;;4.34;93.64;101940.97;5062944;28;20064;-84
2023/04/26 06:52:25;;;;;;;17.73;11.30;;;;;;;4.41;93.11;101934.59;5062740;28;20534;-84
2023/04/26 06:54:50;;;;;;;20.77;11.07;;;;;;;4.48;92.24;101937.00;5063361;28;20056;-84
2023/04/26 06:57:16;;;;;;;20.65;11.85;;;;;;;4.56;92.55;101937.63;5069831;28;20056;-84
2023/04/26 06:59:41;;;;;;;19.65;11.25;;;;;;;4.65;92.66;101934.69;5086074;28;20062;-84
2023/04/26 07:02:06;;;;;;;20.45;10.75;;;;;;;4.73;91.85;101937.03;5062312;28;20558;-84
2023/04/26 07:04:32;;;;;;;17.15;10.60;;;;;;;4.82;91.60;101934.09;5065262;28;20093;-83
2023/04/26 07:06:57;;;;;;;20.10;10.05;;;;;;;4.96;91.37;101939.75;5071767;28;20095;-84
2023/04/26 07:09:23;;;;;;;18.80;10.82;;;;;;;5.04;90.80;101934.19;5064417;28;20064;-84
2023/04/26 07:11:48;;;;;;;16.52;10.23;;;;;;;5.16;89.83;101933.75;5052111;28;20076;-84
2023/04/26 07:14:14;;;;;;;13.85;8.88;;;;;;;5.25;89.49;101932.56;5059563;28;20041;-83
2023/04/26 07:16:39;;;;;;;17.40;10.45;;;;;;;5.34;89.40;101934.84;5059017;28;20041;-84
2023/04/26 07:19:05;;;;;;;17.92;10.27;;;;;;;5.48;89.56;101938.72;5058358;28;20479;-85
2023/04/26 07:21:31;;;;;;;19.92;10.07;;;;;;;5.63;90.04;101932.91;5053363;28;20037;-84
2023/04/26 07:23:57;;;;;;;14.00;9.38;;;;;;;5.82;89.16;101937.47;5057692;28;20433;-84
2023/04/26 07:26:23;;;;;;;16.23;9.05;;;;;;;5.96;87.61;101931.63;5053980;28;20571;-83
2023/04/26 07:28:52;;;;;;;12.45;8.40;;;;;;;6.13;87.05;101937.13;5057016;28;20093;-84
2023/04/26 07:31:18;;;;;;;14.60;7.90;;;;;;;6.26;85.73;101940.09;5059091;28;20033;-85
2023/04/26 07:33:44;;;;;;;12.93;7.10;;;;;;;6.36;85.07;101922.13;5056648;28;20060;-84
2023/04/26 07:36:09;;;;;;;17.15;7.82;;;;;;;6.49;82.97;101931.25;5057815;28;20117;-84
2023/04/26 07:38:35;;;;;;;14.45;7.70;;;;;;;6.65;82.85;101929.69;5057866;28;20052;-85
2023/04/26 07:41:00;;;;;;;11.85;7.43;;;;;;;6.89;81.57;101926.91;5052126;28;20111;-85
2023/04/26 07:43:26;;;;;;;15.85;6.80;;;;;;;7.21;81.94;101928.13;5051247;28;20055;-85
2023/04/26 07:45:52;;;;;;;13.43;7.55;;;;;;;7.48;80.53;101921.66;5053953;28;20459;-84
2023/04/26 07:48:17;;;;;;;11.27;6.75;;;;;;;7.71;79.60;101915.25;5057362;28;20052;-84
2023/04/26 07:50:42;;;;;;;14.45;6.15;;;;;;;7.84;75.36;101918.19;5073158;28;20296;-84
2023/04/26 07:53:08;;;;;;;15.25;6.70;;;;;;;7.92;76.78;101916.88;5056064;28;20041;-84
2023/04/26 07:55:33;;;;;;;11.20;5.68;;;;;;;8.04;75.18;101922.53;5055071;28;20127;-84
2023/04/26 07:57:59;;;;;;;12.18;6.00;;;;;;;8.20;76.72;101923.50;5057486;28;20059;-83
2023/04/26 08:00:25;;;;;;;10.30;5.72;;;;;;;8.31;75.20;101928.22;5058985;28;20021;-84
2023/04/26 08:02:51;;;;;;;10.55;5.20;;;;;;;8.34;72.18;101936.91;5063214;28;20025;-84
2023/04/26 08:05:16;;;;;;;9.77;4.13;;;;;;;8.36;69.40;101936.84;5062750;28;20028;-83
2023/04/26 08:07:42;;;;;;;8.77;3.72;;;;;;;8.41;70.91;101939.22;5067515;28;20040;-84
2023/04/26 08:10:08;;;;;;;8.18;4.00;;;;;;;8.57;70.14;101949.94;5057348;28;20370;-84
2023/04/26 08:12:34;;;;;;;8.38;4.18;;;;;;;8.76;69.66;101948.09;5055005;28;20037;-84
2023/04/26 08:15:00;;;;;;;9.40;5.00;;;;;;;8.94;68.37;101950.72;5049401;28;20044;-84
2023/04/26 08:17:25;;;;;;;9.48;4.03;;;;;;;9.16;66.96;101946.00;5056061;28;20032;-84
2023/04/26 08:20:00;;;;;;;10.05;4.43;;;;;;;9.26;67.96;101939.28;5048704;28;20024;-84
2023/04/26 08:22:26;;;;;;;9.30;4.03;;;;;;;9.34;64.95;101938.00;5051644;28;20385;-84
2023/04/26 08:24:54;;;;;;;8.52;3.55;;;;;;;9.33;63.67;101933.66;5065325;28;20029;-84
2023/04/26 08:27:20;;;;;;;12.53;3.40;;;;;;;9.37;63.97;101932.53;5045091;28;20113;-84
2023/04/26 08:29:45;;;;;;;6.38;2.75;;;;;;;9.37;62.06;101925.41;5060780;28;20057;-83
2023/04/26 08:32:11;;;;;;;5.95;1.80;;;;;;;9.34;58.54;101938.00;5058018;28;20546;-84
2023/04/26 08:34:36;;;;;;;7.47;2.17;;;;;;;9.37;60.40;101930.72;5058461;28;20455;-84
2023/04/26 08:37:01;;;;;;;9.68;2.90;;;;;;;9.30;59.75;101937.31;5056569;28;20040;-84
2023/04/26 08:39:27;;;;;;;5.70;2.60;;;;;;;9.41;61.05;101940.25;5061197;28;20086;-84
2023/04/26 08:41:54;;;;;;;11.45;2.67;;;;;;;9.46;59.50;101932.03;5054011;28;20029;-84
2023/04/26 08:44:23;;;;;;;8.90;3.40;;;;;;;9.51;59.72;101929.13;5057442;28;20017;-85
2023/04/26 08:46:57;;;;;;;7.03;2.30;;;;;;;9.55;58.83;101933.34;5059318;28;20024;-85
2023/04/26 08:49:38;;;;;;;3.97;2.00;;;;;;;9.54;56.78;101927.19;5059146;28;20451;-85
2023/04/26 08:52:07;;;;;;;4.63;1.92;;;;;;;9.54;57.13;101928.97;5058933;28;20033;-84
2023/04/26 08:54:35;;;;;;;9.20;3.22;;;;;;;9.53;57.41;101924.63;5058650;28;20029;-85
2023/04/26 08:57:01;;;;;;;9.10;3.10;;;;;;;9.49;56.86;101928.34;5074392;28;20009;-85
2023/04/26 08:59:29;;;;;;;9.85;2.92;;;;;;;9.51;58.73;101921.16;5079298;28;20037;-84
2023/04/26 09:01:56;;;;;;;6.32;3.38;;;;;;;9.66;59.51;101925.66;5076143;28;20048;-84
2023/04/26 09:04:21;;;;;;;7.75;3.42;;;;;;;9.92;57.45;101929.47;5074916;28;20044;-84
2023/04/26 09:06:48;;;;;;;9.13;3.58;;;;;;;10.27;57.94;101923.94;5068349;28;20053;-85
2023/04/26 09:09:18;;;;;;;8.25;3.33;;;;;;;10.46;56.84;101913.16;5039334;28;20473;-85
2023/04/26 09:11:52;;;;;;;5.47;2.97;;;;;;;10.69;56.43;101913.56;5056876;28;20031;-84
2023/04/26 09:14:18;;;;;;;8.35;3.25;;;;;;;11.01;57.40;101911.63;5051048;28;20044;-84
2023/04/26 09:16:43;;;;;;;9.43;3.55;;;;;;;11.29;56.02;101913.44;5056010;28;20112;-84
2023/04/26 09:19:09;;;;;;;7.65;2.90;;;;;;;11.42;53.57;101913.53;5056560;28;20111;-84
2023/04/26 09:21:46;;;;;;;9.80;3.40;;;;;;;11.55;54.95;101907.41;5047998;28;20402;-84
2023/04/26 09:24:11;;;;;;;7.38;3.25;;;;;;;11.70;53.62;101908.25;5055074;28;20051;-85
2023/04/26 09:26:37;;;;;;;8.35;3.30;;;;;;;11.74;53.43;101904.41;5056945;28;20045;-85
2023/04/26 09:29:12;;;;;;;10.65;3.22;;;;;;;11.73;52.76;101903.56;5048729;28;20018;-85
2023/04/26 09:31:41;;;;;;;7.35;3.10;;;;;;;11.85;52.76;101904.56;5062725;28;20060;-84
2023/04/26 09:34:07;;;;;;;11.60;3.50;;;;;;;11.92;51.92;101907.72;5056788;28;20462;-85
2023/04/26 09:36:45;;;;;;;8.30;3.38;;;;;;;11.92;52.96;101905.91;5058946;28;20402;-84
2023/04/26 09:39:11;;;;;;;4.97;2.50;;;;;;;11.94;50.20;101911.13;5043664;28;20039;-85
2023/04/26 09:41:44;;;;;;;6.32;2.70;;;;;;;11.93;50.79;101910.28;5052988;28;20029;-84
2023/04/26 09:44:22;;;;;;;5.35;2.80;;;;;;;12.05;50.81;101910.44;5056869;28;20049;-85
2023/04/26 09:47:20;;;;;;;6.60;2.40;;;;;;;12.15;51.88;101916.88;5057713;28;20044;-84
2023/04/26 09:49:49;;;;;;;6.00;2.40;;;;;;;11.97;47.26;101909.16;5049849;28;20125;-84
2023/04/26 09:52:16;;;;;;;8.25;2.92;;;;;;;12.05;48.85;101910.44;5070312;28;20481;-85
2023/04/26 09:54:51;;;;;;;9.15;3.25;;;;;;;11.99;49.33;101907.22;5065627;28;20501;-84
2023/04/26 09:57:18;;;;;;;10.30;3.25;;;;;;;11.90;47.88;101904.28;5056775;28;20108;-85
2023/04/26 09:59:43;;;;;;;6.80;2.90;;;;;;;11.98;50.56;101905.50;5056872;28;20498;-84
2023/04/26 10:02:21;;;;;;;7.65;3.08;;;;;;;11.96;49.45;101898.59;5060688;28;20105;-85
2023/04/26 10:04:48;;;;;;;4.50;2.92;;;;;;;11.92;48.59;101903.25;5056451;28;20033;-84
2023/04/26 10:07:16;;;;;;;7.60;3.13;;;;;;;11.89;49.14;101908.75;5062854;28;20064;-85
2023/04/26 10:09:42;;;;;;;10.30;3.70;;;;;;;11.93;49.07;101904.97;5075050;28;20075;-84
2023/04/26 10:12:12;;;;;;;8.43;3.15;;;;;;;11.97;50.42;101906.50;5067425;28;20028;-84
2023/04/26 10:14:38;;;;;;;9.85;3.47;;;;;;;11.97;49.45;101911.81;5065870;28;20036;-84
2023/04/26 10:17:04;;;;;;;9.13;3.45;;;;;;;11.91;49.42;101906.88;5088301;28;20016;-84
2023/04/26 10:19:31;;;;;;;6.00;3.28;;;;;;;11.88;49.14;101906.19;5089675;28;20112;-85
2023/04/26 10:22:03;;;;;;;7.50;3.25;;;;;;;11.81;49.73;101906.59;5060888;28;20036;-85
2023/04/26 10:24:29;;;;;;;7.68;3.15;;;;;;;11.75;50.06;101914.13;5055534;28;20090;-85
2023/04/26 10:26:58;;;;;;;7.22;3.38;;;;;;;11.65;48.98;101911.19;5056273;28;20033;-85
2023/04/26 10:29:25;;;;;;;7.03;3.22;;;;;;;11.67;49.94;101911.94;5055411;28;20037;-84
2023/04/26 10:32:07;;;;;;;7.72;3.60;;;;;;;11.59;50.69;101911.56;5059056;28;20025;-84
2023/04/26 10:34:34;;;;;;;8.25;3.42;;;;;;;11.50;50.26;101907.69;5068264;28;20038;-84
2023/04/26 10:37:06;;;;;;;8.02;3.50;;;;;;;11.47;51.14;101902.56;5059822;28;20065;-85
2023/04/26 10:39:31;;;;;;;6.75;3.63;;;;;;;11.44;49.80;101903.63;5049533;28;20032;-84
2023/04/26 10:42:27;;;;;;;10.10;3.65;;;;;;;11.49;51.15;101903.34;5056932;28;20122;-85
2023/04/26 10:44:56;;;;;;;6.97;3.65;;;;;;;11.23;50.48;101897.84;5055399;28;20048;-85
2023/04/26 10:47:25;;;;;;;9.55;3.92;;;;;;;11.18;50.51;101897.28;5055989;28;20025;-85
2023/04/26 10:49:50;;;;;;;11.43;3.88;;;;;;;11.18;50.33;101891.13;5051641;28;20044;-85
2023/04/26 10:52:21;;;;;;;7.15;3.63;;;;;;;11.25;52.01;101892.44;5064373;28;20036;-84
2023/04/26 10:54:57;;;;;;;9.70;3.80;;;;;;;11.27;53.39;101890.53;5056870;28;20037;-85
2023/04/26 10:57:46;;;;;;;10.73;3.90;;;;;;;11.35;53.35;101890.91;5056122;28;20390;-85
2023/04/26 11:00:38;;;;;;;8.60;3.90;;;;;;;11.42;52.39;101897.56;5057617;28;20052;-84
2023/04/26 11:03:10;;;;;;;6.53;3.85;;;;;;;11.37;49.82;101896.13;5056513;28;20063;-84
2023/04/26 11:05:52;;;;;;;12.05;4.10;;;;;;;11.34;49.98;101891.88;5058229;28;20041;-84
2023/04/26 11:08:18;;;;;;;9.63;3.92;;;;;;;11.42;49.53;101897.56;5057555;28;20487;-84
2023/04/26 11:10:50;;;;;;;7.50;3.13;;;;;;;11.52;50.71;101892.47;5058542;28;20124;-84
2023/04/26 11:13:18;;;;;;;7.72;4.00;;;;;;;11.66;48.20;101892.47;5060531;28;20020;-84
2023/04/26 11:15:45;;;;;;;4.88;3.30;;;;;;;11.85;48.39;101884.13;5063465;28;20045;-84
2023/04/26 11:18:10;;;;;;;7.15;3.38;;;;;;;12.05;48.17;101879.34;5062498;28;20025;-84
2023/04/26 11:20:35;;;;;;;9.90;3.47;;;;;;;12.23;47.48;101881.75;5057633;28;20033;-84
2023/04/26 11:23:01;;;;;;;6.25;3.40;;;;;;;12.39;47.07;101874.44;5055564;28;20032;-84